createdAt,value
2023-01-04T00:02:01.563Z,70.77
2023-01-04T00:04:29.864Z,70.72
2023-01-04T00:06:58.031Z,70.70
2023-01-04T00:09:26.340Z,70.79
2023-01-04T00:11:54.567Z,70.71
2023-01-04T00:14:22.749Z,70.56
2023-01-04T00:16:51.000Z,71.25
2023-01-04T00:19:19.289Z,71.47
2023-01-04T00:21:47.448Z,71.61
2023-01-04T00:24:15.594Z,71.74
2023-01-04T00:26:43.731Z,71.70
2023-01-04T00:29:13.636Z,71.86
2023-01-04T00:31:44.580Z,71.74
2023-01-04T00:34:15.883Z,71.68
2023-01-04T00:36:44.864Z,71.22
2023-01-04T00:39:16.009Z,70.89
2023-01-04T00:42:01.716Z,71.09
2023-01-04T00:44:32.936Z,71.24
2023-01-04T00:47:04.008Z,71.31
2023-01-04T00:49:33.019Z,71.36
2023-01-04T00:52:01.345Z,71.39
2023-01-04T00:54:29.536Z,71.45
2023-01-04T00:56:58.749Z,71.33
2023-01-04T00:59:27.749Z,71.20
2023-01-04T01:01:55.974Z,71.29
2023-01-04T01:04:24.698Z,71.97
2023-01-04T01:06:53.413Z,72.04
2023-01-04T01:09:24.479Z,72.25
2023-01-04T01:11:54.204Z,72.33
2023-01-04T01:14:25.852Z,72.30
2023-01-04T01:16:57.142Z,72.44
2023-01-04T01:19:28.880Z,72.86
2023-01-04T01:21:58.463Z,72.69
2023-01-04T01:24:27.681Z,72.58
2023-01-04T01:26:57.099Z,72.37
2023-01-04T01:29:25.590Z,72.26
2023-01-04T01:31:54.567Z,72.10
2023-01-04T01:34:22.981Z,72.19
2023-01-04T01:36:51.204Z,72.27
2023-01-04T01:39:19.301Z,72.32
2023-01-04T01:41:47.587Z,72.35
2023-01-04T01:44:46.870Z,72.29
2023-01-04T01:47:23.721Z,72.33
2023-01-04T01:49:54.659Z,72.33
2023-01-04T01:52:34.218Z,72.29
2023-01-04T01:55:11.052Z,72.41
2023-01-04T01:57:39.867Z,72.48
2023-01-04T02:00:12.712Z,72.47
2023-01-04T02:03:22.688Z,72.67
2023-01-04T02:05:55.283Z,72.85
2023-01-04T02:08:25.169Z,73.09
2023-01-04T02:10:53.262Z,73.13
2023-01-04T02:13:50.150Z,72.97
2023-01-04T02:16:28.813Z,72.90
2023-01-04T02:19:19.213Z,73.12
2023-01-04T02:22:04.280Z,73.21
2023-01-04T02:25:09.177Z,73.15
2023-01-04T02:27:58.076Z,73.37
2023-01-04T02:30:59.413Z,73.12
2023-01-04T02:33:39.065Z,73.20
2023-01-04T02:36:29.069Z,73.30
2023-01-04T02:39:14.896Z,73.41
2023-01-04T02:42:13.185Z,73.51
2023-01-04T02:44:57.553Z,73.56
2023-01-04T02:48:29.437Z,73.61
2023-01-04T02:51:00.506Z,73.55
2023-01-04T02:53:33.566Z,73.49
2023-01-04T02:56:35.657Z,73.63
2023-01-04T02:59:32.071Z,73.38
2023-01-04T03:02:53.460Z,73.28
2023-01-04T03:06:02.351Z,73.27
2023-01-04T03:08:55.481Z,73.23
2023-01-04T03:11:47.022Z,73.23
2023-01-04T03:14:32.320Z,73.27
2023-01-04T03:17:07.900Z,73.30
2023-01-04T03:19:56.846Z,73.38
2023-01-04T03:22:52.467Z,73.37
2023-01-04T03:25:48.932Z,73.79
2023-01-04T03:28:38.812Z,74.08
2023-01-04T03:32:01.458Z,74.52
2023-01-04T03:34:48.298Z,74.19
2023-01-04T03:37:37.697Z,74.08
2023-01-04T03:40:52.288Z,73.98
2023-01-04T03:43:48.414Z,73.82
2023-01-04T03:47:02.786Z,74.03
2023-01-04T03:49:47.827Z,73.82
2023-01-04T03:52:17.897Z,73.71
2023-01-04T03:54:50.096Z,73.79
2023-01-04T03:57:18.733Z,73.99
2023-01-04T03:59:57.830Z,73.88
2023-01-04T04:02:30.565Z,73.89
2023-01-04T04:05:17.396Z,73.93
2023-01-04T04:08:03.940Z,73.65
2023-01-04T04:10:31.997Z,73.58
2023-01-04T04:13:00.195Z,73.77
2023-01-04T04:15:28.496Z,73.69
2023-01-04T04:17:56.611Z,73.56
2023-01-04T04:20:24.725Z,73.58
2023-01-04T04:22:53.636Z,73.59
2023-01-04T04:25:21.790Z,73.85
2023-01-04T04:27:50.127Z,73.81
2023-01-04T04:30:18.460Z,73.91
2023-01-04T04:32:46.698Z,73.79
2023-01-04T04:35:14.912Z,73.86
2023-01-04T04:37:43.060Z,74.08
2023-01-04T04:40:32.425Z,74.40
2023-01-04T04:43:00.527Z,74.49
2023-01-04T04:45:28.639Z,74.47
2023-01-04T04:47:56.849Z,74.33
2023-01-04T04:50:25.039Z,74.26
2023-01-04T04:52:56.218Z,74.13
2023-01-04T04:55:24.861Z,73.82
2023-01-04T04:57:52.978Z,73.77
2023-01-04T05:00:21.214Z,73.75
2023-01-04T05:02:49.501Z,73.76
2023-01-04T05:05:17.824Z,73.74
2023-01-04T05:07:45.914Z,73.64
2023-01-04T05:10:14.086Z,73.60
2023-01-04T05:13:00.375Z,73.58
2023-01-04T05:15:33.662Z,73.66
2023-01-04T05:18:03.165Z,73.81
2023-01-04T05:20:31.809Z,74.06
2023-01-04T05:23:00.252Z,74.18
2023-01-04T05:25:28.591Z,74.12
2023-01-04T05:27:56.961Z,74.06
2023-01-04T05:30:43.982Z,74.01
2023-01-04T05:33:12.485Z,74.03
2023-01-04T05:35:40.620Z,74.03
2023-01-04T05:38:08.811Z,74.08
2023-01-04T05:40:36.946Z,74.18
2023-01-04T05:43:07.006Z,74.20
2023-01-04T05:45:35.973Z,74.03
2023-01-04T05:48:04.652Z,74.03
2023-01-04T05:50:32.986Z,74.07
2023-01-04T05:53:06.870Z,73.88
2023-01-04T05:55:35.058Z,73.86
2023-01-04T05:58:03.452Z,73.89
2023-01-04T06:00:31.615Z,73.65
2023-01-04T06:02:59.986Z,73.39
2023-01-04T06:05:28.449Z,73.32
2023-01-04T06:07:56.716Z,73.13
2023-01-04T06:10:24.975Z,73.02
2023-01-04T06:12:53.289Z,72.99
2023-01-04T06:15:21.547Z,72.78
2023-01-04T06:17:49.805Z,72.62
2023-01-04T06:20:18.204Z,72.67
2023-01-04T06:22:46.971Z,72.57
2023-01-04T06:25:15.552Z,72.61
2023-01-04T07:54:18.221Z,75.33
2023-01-04T07:56:48.134Z,75.15
2023-01-04T07:59:18.427Z,74.76
2023-01-04T08:01:48.808Z,74.72
2023-01-04T08:04:18.462Z,74.66
2023-01-04T08:06:46.858Z,74.50
2023-01-04T08:09:15.417Z,73.47
2023-01-04T08:11:45.042Z,72.11
2023-01-04T08:14:13.661Z,71.20
2023-01-04T08:16:43.031Z,70.92
2023-01-04T08:19:21.155Z,70.60
2023-01-04T08:21:49.378Z,70.52
2023-01-04T08:24:20.128Z,70.24
2023-01-04T08:26:48.338Z,69.73
2023-01-04T08:29:16.733Z,69.96
2023-01-04T08:31:45.015Z,70.25
2023-01-04T08:34:13.455Z,70.05
2023-01-04T08:36:50.553Z,69.99
2023-01-04T08:39:19.759Z,69.72
2023-01-04T08:42:04.768Z,69.63
2023-01-04T08:44:39.200Z,69.74
2023-01-04T08:47:07.444Z,69.34
2023-01-04T08:49:35.604Z,68.80
2023-01-04T08:52:04.526Z,68.24
2023-01-04T08:54:32.943Z,67.84
2023-01-04T08:57:01.175Z,68.12
2023-01-04T08:59:29.941Z,68.24
2023-01-04T09:02:04.809Z,68.34
2023-01-04T09:04:34.415Z,67.65
2023-01-04T09:07:03.056Z,67.16
2023-01-04T09:09:31.426Z,66.61
2023-01-04T09:11:59.814Z,66.50
2023-01-04T09:14:28.630Z,66.71
2023-01-04T09:16:56.953Z,66.47
2023-01-04T09:19:25.349Z,66.39
2023-01-04T09:21:53.547Z,66.36
2023-01-04T09:24:22.653Z,66.49
2023-01-04T09:26:50.901Z,66.60
2023-01-04T09:29:19.183Z,66.68
2023-01-04T09:31:47.494Z,66.22
2023-01-04T09:34:17.768Z,65.95
2023-01-04T09:36:48.343Z,66.08
2023-01-04T09:39:24.665Z,66.04
2023-01-04T09:42:05.305Z,66.09
2023-01-04T09:45:25.547Z,66.02
2023-01-04T09:48:05.308Z,65.66
2023-01-04T09:50:58.298Z,64.96
2023-01-04T09:53:36.406Z,65.08
2023-01-04T09:56:33.384Z,65.50
2023-01-04T09:59:08.218Z,65.06
2023-01-04T10:01:59.956Z,64.10
2023-01-04T10:04:50.958Z,63.29
2023-01-04T10:07:28.468Z,63.25
2023-01-04T10:09:57.725Z,63.32
2023-01-04T10:12:59.946Z,63.14
2023-01-04T10:15:31.115Z,63.32
2023-01-04T10:21:42.965Z,62.32
2023-01-04T10:24:49.729Z,62.45
2023-01-04T10:27:52.597Z,62.58
2023-01-04T10:30:36.557Z,62.67
2023-01-04T10:33:26.955Z,62.33
2023-01-04T10:35:56.463Z,61.84
2023-01-04T10:38:33.020Z,61.59
2023-01-04T10:41:10.073Z,61.77
2023-01-04T10:44:12.180Z,60.77
2023-01-04T10:46:48.032Z,60.05
2023-01-04T10:49:59.061Z,59.90
2023-01-04T10:52:35.975Z,60.03
2023-01-04T10:55:25.369Z,59.72
2023-01-04T10:58:33.412Z,59.98
2023-01-04T11:01:10.641Z,59.72
2023-01-04T11:03:46.832Z,59.38
2023-01-04T11:06:25.469Z,59.01
2023-01-04T11:08:59.332Z,58.30
2023-01-04T11:11:35.979Z,57.41
2023-01-04T11:14:04.468Z,57.35
2023-01-04T11:16:32.781Z,57.20
2023-01-04T11:19:01.626Z,56.93
2023-01-04T11:21:39.961Z,56.13
2023-01-04T11:27:05.548Z,54.24
2023-01-04T11:29:58.129Z,54.71
2023-01-04T11:33:03.041Z,53.78
2023-01-04T11:35:44.812Z,54.44
2023-01-04T11:38:28.165Z,54.64
2023-01-04T11:41:00.930Z,54.56
2023-01-04T11:43:32.577Z,53.67
2023-01-04T11:46:21.539Z,53.39
2023-01-04T11:48:50.935Z,53.70
2023-01-04T11:51:28.900Z,53.94
2023-01-04T11:54:02.521Z,54.72
2023-01-04T11:56:40.017Z,55.16
2023-01-04T11:59:25.252Z,54.99
2023-01-04T12:05:28.847Z,54.69
2023-01-04T12:08:01.197Z,54.69
2023-01-04T12:10:29.473Z,54.84
2023-01-04T12:13:02.508Z,54.47
2023-01-04T12:15:48.083Z,54.99
2023-01-04T12:18:29.284Z,54.51
2023-01-04T12:20:58.131Z,54.33
2023-01-04T12:23:26.421Z,54.69
2023-01-04T12:25:56.059Z,54.57
2023-01-04T12:28:42.314Z,54.08
2023-01-04T12:31:20.421Z,53.90
2023-01-04T12:33:52.318Z,53.08
2023-01-04T12:36:41.203Z,53.61
2023-01-04T12:39:15.231Z,54.06
2023-01-04T12:41:45.209Z,54.08
2023-01-04T12:44:46.735Z,54.16
2023-01-04T12:47:36.637Z,54.19
2023-01-04T12:50:12.335Z,55.00
2023-01-04T12:56:02.712Z,55.37
2023-01-04T13:01:28.030Z,55.43
2023-01-04T13:04:22.956Z,55.83
2023-01-04T13:06:51.882Z,55.50
2023-01-04T13:09:24.940Z,55.52
2023-01-04T13:12:06.981Z,54.73
2023-01-04T13:14:55.295Z,55.07
2023-01-04T13:17:28.249Z,55.37
2023-01-04T13:19:57.418Z,55.46
2023-01-04T13:22:30.256Z,55.10
2023-01-04T13:25:01.813Z,54.93
2023-01-04T13:27:30.437Z,54.86
2023-01-04T13:30:01.742Z,54.85
2023-01-04T13:32:42.363Z,55.17
2023-01-04T13:35:21.375Z,55.57
2023-01-04T13:37:56.207Z,56.07
2023-01-04T13:40:34.943Z,56.45
2023-01-04T13:44:01.293Z,56.74
2023-01-04T13:46:52.078Z,56.36
2023-01-04T13:49:33.173Z,56.41
2023-01-04T13:55:36.298Z,56.51
2023-01-04T13:58:16.910Z,56.65
2023-01-04T14:01:15.709Z,56.49
2023-01-04T14:04:28.728Z,56.19
2023-01-04T14:07:00.220Z,56.98
2023-01-04T14:09:32.892Z,57.64
2023-01-04T14:12:17.547Z,57.56
2023-01-04T14:14:56.367Z,57.09
2023-01-04T14:17:48.492Z,57.15
2023-01-04T14:20:20.009Z,57.48
2023-01-04T14:22:48.087Z,57.63
2023-01-04T14:25:34.172Z,57.80
2023-01-04T14:28:33.513Z,57.98
2023-01-04T14:31:03.537Z,58.09
2023-01-04T14:33:41.573Z,58.26
2023-01-04T14:36:10.062Z,58.22
2023-01-04T14:39:08.063Z,58.32
2023-01-04T14:42:04.171Z,58.40
2023-01-04T14:44:36.032Z,58.62
2023-01-04T14:47:06.459Z,58.66
2023-01-04T14:49:34.772Z,58.43
2023-01-04T14:52:11.321Z,58.22
2023-01-04T14:54:39.764Z,58.09
2023-01-04T14:57:09.969Z,57.96
2023-01-04T14:59:38.208Z,58.14
2023-01-04T15:02:06.498Z,58.15
2023-01-04T15:04:34.842Z,58.52
2023-01-04T15:07:02.971Z,58.69
2023-01-04T15:09:31.362Z,59.35
2023-01-04T15:11:59.560Z,59.35
2023-01-04T15:14:27.848Z,59.63
2023-01-04T15:16:56.077Z,59.95
2023-01-04T15:19:24.332Z,60.14
2023-01-04T15:21:52.689Z,60.36
2023-01-04T15:24:20.982Z,60.42
2023-01-04T15:26:49.188Z,60.41
2023-01-04T15:29:17.321Z,60.30
2023-01-04T15:31:45.579Z,60.30
2023-01-04T15:34:16.945Z,60.45
2023-01-04T15:36:45.169Z,60.41
2023-01-04T15:39:14.571Z,60.39
2023-01-04T15:42:01.463Z,60.16
2023-01-04T15:44:29.706Z,60.22
2023-01-04T15:46:59.752Z,59.81
2023-01-04T15:49:30.725Z,59.61
2023-01-04T15:51:58.885Z,60.03
2023-01-04T15:54:28.157Z,60.39
2023-01-04T15:56:56.781Z,60.25
2023-01-04T15:59:26.032Z,59.92
2023-01-04T16:01:54.588Z,60.06
2023-01-04T16:04:23.026Z,60.56
2023-01-04T16:06:51.269Z,60.79
2023-01-04T16:09:20.276Z,60.70
2023-01-04T16:12:07.258Z,60.84
2023-01-04T16:14:35.532Z,61.75
2023-01-04T16:17:03.906Z,61.94
2023-01-04T16:19:34.222Z,62.07
2023-01-04T16:22:02.433Z,61.98
2023-01-04T16:25:08.720Z,62.22
2023-01-04T16:27:19.465Z,62.49
2023-01-04T16:29:52.764Z,62.44
2023-01-04T16:32:20.909Z,62.01
2023-01-04T16:34:51.115Z,61.71
2023-01-04T16:37:19.613Z,61.73
2023-01-04T16:40:06.198Z,61.54
2023-01-04T16:42:37.258Z,61.42
2023-01-04T16:45:06.554Z,61.24
2023-01-04T16:47:42.778Z,61.25
2023-01-04T16:50:12.567Z,61.33
2023-01-04T16:52:40.911Z,61.40
2023-01-04T16:55:10.762Z,61.54
2023-01-04T16:57:38.992Z,61.78
2023-01-04T17:00:08.675Z,62.08
2023-01-04T17:02:37.102Z,62.32
2023-01-04T17:05:05.953Z,62.43
2023-01-04T17:07:34.685Z,62.49
2023-01-04T17:10:02.866Z,62.82
2023-01-04T17:12:48.402Z,62.84
2023-01-04T17:18:06.944Z,63.16
2023-01-04T17:20:35.296Z,63.23
2023-01-04T17:23:03.854Z,63.38
2023-01-04T17:25:32.243Z,63.43
2023-01-04T17:28:00.310Z,63.46
2023-01-04T17:30:28.426Z,63.42
2023-01-04T17:32:56.652Z,63.68
2023-01-04T17:35:24.770Z,63.91
2023-01-04T17:37:53.060Z,63.64
2023-01-04T17:40:23.504Z,63.50
2023-01-04T17:42:52.043Z,63.66
2023-01-04T17:45:20.542Z,63.37
2023-01-04T17:47:48.809Z,63.52
2023-01-04T17:50:18.859Z,63.66
2023-01-04T17:52:50.778Z,63.76
2023-01-04T17:55:20.630Z,63.58
2023-01-04T17:57:48.715Z,63.36
2023-01-04T18:00:17.526Z,63.43
2023-01-04T18:02:45.728Z,63.58
2023-01-04T18:05:13.961Z,63.70
2023-01-04T18:07:42.067Z,63.74
2023-01-04T18:10:20.661Z,63.49
2023-01-04T18:12:55.108Z,63.40
2023-01-04T18:15:23.218Z,63.47
2023-01-04T18:17:51.359Z,63.68
2023-01-04T18:20:24.705Z,63.56
2023-01-04T18:22:53.753Z,63.66
2023-01-04T18:25:21.908Z,63.65
2023-01-04T18:27:50.138Z,63.86
2023-01-04T18:30:18.377Z,64.03
2023-01-04T18:32:46.939Z,63.98
2023-01-04T18:35:15.198Z,64.06
2023-01-04T18:37:45.748Z,64.10
2023-01-04T18:40:13.894Z,64.19
2023-01-04T18:42:49.817Z,64.19
2023-01-04T18:45:19.214Z,64.43
2023-01-04T18:47:47.636Z,64.65
2023-01-04T18:50:17.780Z,64.68
2023-01-04T18:52:46.049Z,64.64
2023-01-04T18:55:14.964Z,64.53
2023-01-04T18:57:43.105Z,64.72
2023-01-04T19:00:12.577Z,64.80
2023-01-04T19:02:40.940Z,64.83
2023-01-04T19:05:11.200Z,65.02
2023-01-04T19:07:39.772Z,65.21
2023-01-04T19:10:08.840Z,65.27
2023-01-04T19:12:38.953Z,65.13
2023-01-04T19:15:08.987Z,64.64
2023-01-04T19:17:38.855Z,64.56
2023-01-04T19:20:09.082Z,64.63
2023-01-04T19:22:38.229Z,64.88
2023-01-04T19:25:07.614Z,64.92
2023-01-04T19:27:36.271Z,65.11
2023-01-04T19:30:05.859Z,65.29
2023-01-04T19:32:34.222Z,65.46
2023-01-04T19:35:02.815Z,65.71
2023-01-04T19:37:31.183Z,65.70
2023-01-04T19:40:00.475Z,65.53
2023-01-04T19:42:29.026Z,65.27
2023-01-04T19:44:57.355Z,65.09
2023-01-04T19:47:25.464Z,65.09
2023-01-04T19:49:53.806Z,65.05
2023-01-04T19:52:22.022Z,65.19
2023-01-04T19:54:50.160Z,65.22
2023-01-04T19:57:18.371Z,65.34
2023-01-04T19:59:46.513Z,65.14
2023-01-04T20:02:14.834Z,65.50
2023-01-04T20:04:43.240Z,65.38
2023-01-04T20:07:11.370Z,65.16
2023-01-04T20:09:39.454Z,65.33
2023-01-04T20:12:07.812Z,65.62
2023-01-04T20:14:36.042Z,65.70
2023-01-04T20:17:04.330Z,65.83
2023-01-04T20:19:32.541Z,66.04
2023-01-04T20:22:00.731Z,65.96
2023-01-04T20:24:29.035Z,65.91
2023-01-04T20:26:57.280Z,65.97
2023-01-04T20:29:25.520Z,65.87
2023-01-04T20:31:53.776Z,66.24
2023-01-04T20:34:22.242Z,66.35
2023-01-04T20:36:50.413Z,66.11
2023-01-04T20:39:18.559Z,66.08
2023-01-04T20:42:05.117Z,66.25
2023-01-04T20:44:33.254Z,66.51
2023-01-04T20:47:01.412Z,66.01
2023-01-04T20:49:29.583Z,65.85
2023-01-04T20:51:57.757Z,66.22
2023-01-04T20:54:27.291Z,66.52
2023-01-04T20:56:55.361Z,67.03
2023-01-04T20:59:23.504Z,66.92
2023-01-04T21:01:51.784Z,66.30
2023-01-04T21:04:20.012Z,66.19
2023-01-04T21:06:48.180Z,66.30
2023-01-04T21:09:16.410Z,66.40
2023-01-04T21:11:44.574Z,66.76
2023-01-04T21:14:13.301Z,67.48
2023-01-04T21:16:42.070Z,66.77
2023-01-04T21:19:10.299Z,66.43
2023-01-04T21:21:38.903Z,66.11
2023-01-04T21:24:07.539Z,65.75
2023-01-04T21:26:35.652Z,65.41
2023-01-04T21:29:03.813Z,65.48
2023-01-04T21:31:31.988Z,65.47
2023-01-04T21:34:01.217Z,65.65
2023-01-04T21:36:29.419Z,65.50
2023-01-04T21:38:59.196Z,65.84
2023-01-04T21:41:27.444Z,65.73
2023-01-04T21:43:58.331Z,65.40
2023-01-04T21:46:26.739Z,65.58
2023-01-04T21:49:01.470Z,65.76
2023-01-04T21:51:30.557Z,65.96
2023-01-04T21:53:58.957Z,66.13
2023-01-04T21:56:27.661Z,66.52
2023-01-04T21:58:55.874Z,66.78
2023-01-04T22:01:34.140Z,67.14
2023-01-04T22:04:04.449Z,66.72
2023-01-04T22:06:34.201Z,66.77
2023-01-04T22:09:02.287Z,66.41
2023-01-04T22:11:30.473Z,66.17
2023-01-04T22:13:58.601Z,66.25
2023-01-04T22:16:26.901Z,66.35
2023-01-04T22:18:55.174Z,66.37
2023-01-04T22:21:26.871Z,66.15
2023-01-04T22:23:55.321Z,66.20
2023-01-04T22:26:23.445Z,65.82
2023-01-04T22:28:51.658Z,65.75
2023-01-04T22:31:19.879Z,65.76
2023-01-04T22:33:48.051Z,65.61
2023-01-04T22:36:22.993Z,65.90
2023-01-04T22:38:53.976Z,66.41
2023-01-04T22:41:26.039Z,66.57
2023-01-04T22:44:03.351Z,66.47
2023-01-04T22:46:34.534Z,66.46
2023-01-04T22:49:03.477Z,66.63
2023-01-04T22:51:31.831Z,66.31
2023-01-04T22:54:02.485Z,66.44
2023-01-04T22:56:30.646Z,66.03
2023-01-04T22:58:59.114Z,65.34
2023-01-04T23:01:31.361Z,65.35
2023-01-04T23:04:01.783Z,65.63
2023-01-04T23:06:31.744Z,66.44
2023-01-04T23:09:07.828Z,66.73
2023-01-04T23:11:37.307Z,67.12
2023-01-04T23:14:08.293Z,67.16
2023-01-04T23:16:36.544Z,67.38
2023-01-04T23:19:06.756Z,67.35
2023-01-04T23:21:35.538Z,67.32
2023-01-04T23:24:05.317Z,67.26
2023-01-04T23:26:34.466Z,67.19
2023-01-04T23:29:03.586Z,67.18
2023-01-04T23:31:33.191Z,66.94
2023-01-04T23:34:04.379Z,66.82
2023-01-04T23:36:38.489Z,66.44
2023-01-04T23:39:12.367Z,66.34
2023-01-04T23:41:46.977Z,66.13
2023-01-04T23:44:28.363Z,66.06
2023-01-04T23:47:07.257Z,66.22
2023-01-04T23:49:38.015Z,66.50
2023-01-04T23:52:07.430Z,66.77
2023-01-04T23:54:35.570Z,66.75
2023-01-04T23:57:04.403Z,66.57
2023-01-04T23:59:32.764Z,66.61
